createdAt,value
2018-06-04T00:02:30.646Z,16.10
2018-06-04T00:05:03.804Z,15.80
2018-06-04T00:07:37.816Z,15.80
2018-06-04T00:10:11.296Z,15.70
2018-06-04T00:12:45.170Z,15.50
2018-06-04T00:15:19.427Z,15.50
2018-06-04T00:17:53.073Z,15.30
2018-06-04T00:20:29.999Z,15.40
2018-06-04T00:23:04.839Z,15.40
2018-06-04T00:25:38.356Z,15.50
2018-06-04T00:28:12.626Z,15.40
2018-06-04T00:30:47.033Z,15.30
2018-06-04T00:33:22.987Z,15.10
2018-06-04T00:35:57.984Z,15.20
2018-06-04T00:38:31.952Z,15.20
2018-06-04T00:41:05.591Z,15.20
2018-06-04T00:43:42.854Z,15.10
2018-06-04T00:46:18.419Z,15.20
2018-06-04T00:48:54.827Z,15.20
2018-06-04T00:51:29.335Z,15.20
2018-06-04T00:54:04.020Z,14.90
2018-06-04T00:56:37.524Z,15.00
2018-06-04T00:59:11.187Z,14.90
2018-06-04T01:01:44.499Z,14.90
2018-06-04T01:04:18.521Z,14.90
2018-06-04T01:06:52.313Z,14.80
2018-06-04T01:09:26.454Z,14.80
2018-06-04T01:12:08.476Z,14.60
2018-06-04T01:14:42.561Z,14.50
2018-06-04T01:17:17.134Z,14.50
2018-06-04T01:19:51.655Z,14.30
2018-06-04T01:22:25.695Z,14.30
2018-06-04T01:24:59.926Z,14.30
2018-06-04T01:27:34.284Z,14.20
2018-06-04T01:30:08.241Z,14.20
2018-06-04T01:32:44.184Z,14.20
2018-06-04T01:35:18.361Z,14.00
2018-06-04T01:37:51.583Z,13.90
2018-06-04T01:40:25.243Z,13.70
2018-06-04T01:42:59.145Z,13.70
2018-06-04T01:45:33.607Z,13.80
2018-06-04T01:48:07.329Z,13.70
2018-06-04T01:50:41.913Z,13.50
2018-06-04T01:53:15.857Z,13.30
2018-06-04T01:55:50.025Z,13.30
2018-06-04T01:58:24.204Z,13.30
2018-06-04T02:00:58.506Z,13.20
2018-06-04T02:03:32.103Z,13.10
2018-06-04T02:06:07.278Z,13.00
2018-06-04T02:08:41.909Z,12.90
2018-06-04T02:11:15.231Z,12.90
2018-06-04T02:13:48.795Z,12.80
2018-06-04T02:16:22.350Z,12.70
2018-06-04T02:18:55.641Z,12.60
2018-06-04T02:21:29.121Z,12.60
2018-06-04T02:24:03.493Z,12.50
2018-06-04T02:26:39.280Z,12.50
2018-06-04T02:29:13.547Z,12.50
2018-06-04T02:31:47.510Z,12.50
2018-06-04T02:34:21.145Z,12.60
2018-06-04T02:36:54.505Z,12.60
2018-06-04T02:39:28.029Z,12.60
2018-06-04T02:42:01.781Z,12.70
2018-06-04T02:44:35.296Z,12.70
2018-06-04T02:47:08.854Z,12.70
2018-06-04T02:49:42.469Z,12.70
2018-06-04T02:52:15.870Z,12.80
2018-06-04T02:54:49.288Z,12.70
2018-06-04T02:57:23.236Z,12.70
2018-06-04T02:59:57.031Z,12.70
2018-06-04T03:02:31.790Z,12.70
2018-06-04T03:05:06.080Z,12.70
2018-06-04T03:07:40.338Z,12.60
2018-06-04T03:10:13.709Z,12.60
2018-06-04T03:12:47.629Z,12.60
2018-06-04T03:15:21.647Z,12.70
2018-06-04T03:17:56.001Z,12.60
2018-06-04T03:20:29.501Z,12.70
2018-06-04T03:23:03.445Z,12.60
2018-06-04T03:25:37.841Z,12.60
2018-06-04T03:28:12.042Z,12.50
2018-06-04T03:30:46.004Z,12.60
2018-06-04T03:33:20.003Z,12.50
2018-06-04T03:35:54.712Z,12.50
2018-06-04T03:38:28.544Z,12.50
2018-06-04T03:41:02.737Z,12.50
2018-06-04T03:43:36.827Z,12.60
2018-06-04T03:46:11.973Z,12.50
2018-06-04T03:48:45.465Z,12.40
2018-06-04T03:51:19.216Z,12.40
2018-06-04T03:53:53.463Z,12.40
2018-06-04T03:56:27.151Z,12.40
2018-06-04T03:59:01.301Z,12.40
2018-06-04T04:01:34.934Z,12.30
2018-06-04T04:04:08.586Z,12.30
2018-06-04T04:06:42.364Z,12.30
2018-06-04T04:09:16.312Z,12.40
2018-06-04T04:11:50.598Z,12.30
2018-06-04T04:14:24.059Z,12.30
2018-06-04T04:16:57.784Z,12.40
2018-06-04T04:19:32.154Z,12.30
2018-06-04T04:22:04.993Z,12.30
2018-06-04T04:24:38.256Z,12.30
2018-06-04T04:27:11.737Z,12.20
2018-06-04T04:29:45.266Z,12.20
2018-06-04T04:32:18.725Z,12.20
2018-06-04T04:34:52.211Z,12.10
2018-06-04T04:37:25.682Z,12.00
2018-06-04T04:39:59.545Z,12.00
2018-06-04T04:42:32.980Z,11.90
2018-06-04T04:45:06.461Z,12.00
2018-06-04T04:47:40.136Z,11.90
2018-06-04T04:50:13.527Z,11.90
2018-06-04T04:52:46.921Z,11.90
2018-06-04T04:55:20.503Z,12.00
2018-06-04T04:57:53.803Z,11.90
2018-06-04T05:00:27.255Z,12.00
2018-06-04T05:03:00.488Z,12.00
2018-06-04T05:05:33.682Z,12.00
2018-06-04T05:08:06.844Z,12.00
2018-06-04T05:10:40.169Z,12.00
2018-06-04T05:13:13.256Z,12.00
2018-06-04T05:15:46.488Z,12.00
2018-06-04T05:20:52.108Z,12.00
2018-06-04T05:23:25.648Z,12.00
2018-06-04T05:28:30.904Z,12.00
2018-06-04T05:31:04.620Z,12.00
2018-06-04T05:33:38.234Z,12.00
2018-06-04T05:36:11.571Z,12.00
2018-06-04T05:38:45.175Z,12.00
2018-06-04T05:41:18.563Z,11.90
2018-06-04T05:43:52.199Z,11.80
2018-06-04T05:46:25.568Z,11.90
2018-06-04T05:48:59.351Z,11.90
2018-06-04T05:51:32.954Z,11.90
2018-06-04T05:54:06.543Z,11.80
2018-06-04T05:56:40.351Z,11.80
2018-06-04T05:59:14.148Z,11.90
2018-06-04T06:01:47.583Z,11.90
2018-06-04T06:04:21.162Z,11.80
2018-06-04T06:06:54.431Z,11.80
2018-06-04T06:09:27.889Z,11.70
2018-06-04T06:12:01.553Z,11.70
2018-06-04T06:14:34.967Z,11.70
2018-06-04T06:17:08.216Z,11.70
2018-06-04T06:19:41.777Z,11.70
2018-06-04T06:22:15.273Z,11.70
2018-06-04T06:24:48.659Z,11.70
2018-06-04T06:27:22.306Z,11.70
2018-06-04T06:32:28.358Z,11.80
2018-06-04T06:35:02.072Z,11.80
2018-06-04T06:37:35.993Z,11.80
2018-06-04T06:40:11.023Z,11.70
2018-06-04T06:42:44.542Z,11.70
2018-06-04T06:45:18.248Z,11.70
2018-06-04T06:47:52.034Z,11.80
2018-06-04T06:50:25.649Z,11.80
2018-06-04T06:52:59.332Z,11.80
2018-06-04T06:55:32.709Z,11.70
2018-06-04T06:58:05.957Z,11.70
2018-06-04T07:00:39.777Z,11.80
2018-06-04T07:03:13.046Z,11.80
2018-06-04T07:05:46.525Z,11.80
2018-06-04T07:08:20.306Z,11.80
2018-06-04T07:10:54.375Z,11.80
2018-06-04T07:13:28.274Z,11.70
2018-06-04T07:16:01.704Z,11.80
2018-06-04T07:18:35.056Z,11.80
2018-06-04T07:21:08.077Z,11.80
2018-06-04T07:23:41.810Z,11.80
2018-06-04T07:26:15.048Z,11.70
2018-06-04T07:28:48.434Z,11.70
2018-06-04T07:31:22.406Z,11.70
2018-06-04T07:33:55.798Z,11.70
2018-06-04T07:36:29.550Z,11.60
2018-06-04T07:39:03.122Z,11.60
2018-06-04T07:41:36.792Z,11.60
2018-06-04T07:44:10.103Z,11.60
2018-06-04T07:46:43.737Z,11.50
2018-06-04T07:49:17.128Z,11.50
2018-06-04T07:51:50.586Z,11.50
2018-06-04T07:54:24.459Z,11.40
2018-06-04T07:56:58.108Z,11.50
2018-06-04T07:59:31.669Z,11.40
2018-06-04T08:02:05.388Z,11.30
2018-06-04T08:04:39.062Z,11.30
2018-06-04T08:07:12.286Z,11.30
2018-06-04T08:09:45.581Z,11.20
2018-06-04T08:12:19.172Z,11.10
2018-06-04T08:14:52.818Z,11.00
2018-06-04T08:17:26.493Z,11.00
2018-06-04T08:20:00.254Z,10.90
2018-06-04T08:22:34.005Z,10.80
2018-06-04T08:25:07.378Z,10.70
2018-06-04T08:27:41.039Z,10.60
2018-06-04T08:30:14.737Z,10.60
2018-06-04T08:32:48.491Z,10.50
2018-06-04T08:35:22.579Z,10.60
2018-06-04T08:37:56.050Z,10.50
2018-06-04T08:40:29.546Z,10.50
2018-06-04T08:43:02.996Z,10.60
2018-06-04T08:45:36.443Z,10.50
2018-06-04T08:48:10.287Z,10.50
2018-06-04T08:50:44.229Z,10.50
2018-06-04T08:53:17.276Z,10.60
2018-06-04T08:55:50.647Z,10.60
2018-06-04T08:58:25.148Z,10.50
2018-06-04T09:00:58.562Z,10.50
2018-06-04T09:03:31.829Z,10.40
2018-06-04T09:06:05.594Z,10.40
2018-06-04T09:08:39.316Z,10.40
2018-06-04T09:11:12.794Z,10.20
2018-06-04T09:13:46.344Z,10.30
2018-06-04T09:16:19.999Z,10.40
2018-06-04T09:21:25.629Z,10.30
2018-06-04T09:23:59.173Z,10.30
2018-06-04T09:26:32.638Z,10.30
2018-06-04T09:29:06.031Z,10.40
2018-06-04T09:31:40.191Z,10.30
2018-06-04T09:34:13.691Z,10.30
2018-06-04T09:36:47.678Z,10.30
2018-06-04T09:39:20.875Z,10.20
2018-06-04T09:41:54.419Z,10.10
2018-06-04T09:44:27.712Z,10.10
2018-06-04T09:47:01.040Z,10.10
2018-06-04T09:49:34.131Z,10.10
2018-06-04T09:52:07.654Z,10.00
2018-06-04T09:54:40.967Z,10.10
2018-06-04T09:57:14.201Z,10.10
2018-06-04T09:59:47.593Z,10.10
2018-06-04T10:02:21.018Z,10.10
2018-06-04T10:04:54.561Z,10.10
2018-06-04T10:07:28.003Z,10.10
2018-06-04T10:10:01.599Z,10.00
2018-06-04T10:12:35.399Z,10.00
2018-06-04T10:15:08.882Z,10.00
2018-06-04T10:17:42.605Z,10.00
2018-06-04T10:20:15.958Z,10.10
2018-06-04T10:22:50.216Z,10.10
2018-06-04T10:25:23.565Z,10.10
2018-06-04T10:27:56.944Z,10.10
2018-06-04T10:30:30.542Z,10.10
2018-06-04T10:33:04.050Z,10.00
2018-06-04T10:35:37.394Z,10.10
2018-06-04T10:38:10.691Z,10.10
2018-06-04T10:40:43.894Z,10.00
2018-06-04T10:43:17.398Z,10.00
2018-06-04T10:45:50.826Z,9.90
2018-06-04T10:48:24.322Z,9.90
2018-06-04T10:50:58.037Z,9.80
2018-06-04T10:53:31.577Z,9.90
2018-06-04T10:56:05.077Z,9.80
2018-06-04T10:58:38.542Z,9.80
2018-06-04T11:01:11.960Z,9.90
2018-06-04T11:03:45.800Z,9.90
2018-06-04T11:06:19.838Z,9.70
2018-06-04T11:08:53.466Z,9.70
2018-06-04T11:11:26.776Z,9.70
2018-06-04T11:14:00.062Z,9.70
2018-06-04T11:19:05.949Z,9.70
2018-06-04T11:21:39.354Z,9.60
2018-06-04T11:24:13.297Z,9.70
2018-06-04T11:26:47.065Z,9.70
2018-06-04T11:29:21.011Z,9.70
2018-06-04T11:31:54.469Z,9.70
2018-06-04T11:34:28.090Z,9.70
2018-06-04T11:37:01.463Z,9.60
2018-06-04T11:39:34.919Z,9.60
2018-06-04T11:42:08.458Z,9.60
2018-06-04T11:44:41.950Z,9.70
2018-06-04T11:47:15.522Z,9.60
2018-06-04T11:49:48.659Z,9.60
2018-06-04T11:52:22.047Z,9.70
2018-06-04T11:54:55.576Z,9.60
2018-06-04T11:57:28.942Z,9.70
2018-06-04T12:00:02.269Z,9.60
2018-06-04T12:02:35.390Z,9.60
2018-06-04T12:05:08.608Z,9.60
2018-06-04T12:07:41.814Z,9.60
2018-06-04T12:10:15.443Z,9.70
2018-06-04T12:12:48.974Z,9.70
2018-06-04T12:15:22.321Z,9.70
2018-06-04T12:17:55.519Z,9.70
2018-06-04T12:20:29.290Z,9.70
2018-06-04T12:23:02.692Z,9.70
2018-06-04T12:25:36.242Z,9.60
2018-06-04T12:28:09.663Z,9.70
2018-06-04T12:30:43.157Z,9.70
2018-06-04T12:33:16.663Z,9.70
2018-06-04T12:35:49.975Z,9.70
2018-06-04T12:38:23.246Z,9.70
2018-06-04T12:40:56.853Z,9.70
2018-06-04T12:43:30.336Z,9.70
2018-06-04T12:46:03.547Z,9.60
2018-06-04T12:48:36.999Z,9.70
2018-06-04T12:51:10.382Z,9.70
2018-06-04T12:53:43.670Z,9.70
2018-06-04T12:56:16.840Z,9.70
2018-06-04T12:58:50.456Z,9.70
2018-06-04T13:01:23.982Z,9.70
2018-06-04T13:03:57.245Z,9.60
2018-06-04T13:06:30.634Z,9.90
2018-06-04T13:09:04.931Z,10.00
2018-06-04T13:11:38.133Z,10.00
2018-06-04T13:14:11.730Z,10.10
2018-06-04T13:16:45.045Z,10.00
2018-06-04T13:19:18.741Z,10.00
2018-06-04T13:21:52.917Z,10.00
2018-06-04T13:24:26.401Z,9.90
2018-06-04T13:26:59.677Z,10.00
2018-06-04T13:29:33.181Z,9.90
2018-06-04T13:32:06.713Z,10.00
2018-06-04T13:34:40.166Z,10.00
2018-06-04T13:37:13.415Z,10.00
2018-06-04T13:39:46.915Z,10.00
2018-06-04T13:42:20.367Z,10.10
2018-06-04T13:44:53.777Z,10.00
2018-06-04T13:47:27.227Z,10.10
2018-06-04T13:50:00.500Z,10.10
2018-06-04T13:52:33.990Z,10.20
2018-06-04T13:55:07.344Z,10.30
2018-06-04T13:57:41.037Z,10.40
2018-06-04T14:00:14.177Z,10.30
2018-06-04T14:02:47.340Z,10.30
2018-06-04T14:05:20.553Z,10.30
2018-06-04T14:07:53.923Z,10.40
2018-06-04T14:10:27.298Z,10.40
2018-06-04T14:13:00.961Z,10.40
2018-06-04T14:15:34.350Z,10.50
2018-06-04T14:18:07.580Z,10.60
2018-06-04T14:20:41.009Z,10.60
2018-06-04T14:23:14.669Z,10.80
2018-06-04T14:25:48.185Z,10.90
2018-06-04T14:28:21.558Z,11.00
2018-06-04T14:30:55.118Z,11.10
2018-06-04T14:33:28.616Z,11.20
2018-06-04T14:36:01.968Z,11.30
2018-06-04T14:38:35.372Z,11.30
2018-06-04T14:41:08.765Z,11.30
2018-06-04T14:43:41.880Z,11.30
2018-06-04T14:46:15.464Z,11.30
2018-06-04T14:48:48.903Z,11.30
2018-06-04T14:51:22.021Z,11.30
2018-06-04T14:53:55.364Z,11.40
2018-06-04T14:56:28.906Z,11.30
2018-06-04T14:59:02.624Z,11.40
2018-06-04T15:01:35.911Z,11.40
2018-06-04T15:04:09.258Z,11.40
2018-06-04T15:06:42.900Z,11.50
2018-06-04T15:09:16.331Z,11.50
2018-06-04T15:14:21.934Z,11.60
2018-06-04T15:16:54.995Z,11.50
2018-06-04T15:19:28.374Z,11.50
2018-06-04T15:22:01.745Z,11.50
2018-06-04T15:24:35.134Z,11.60
2018-06-04T15:27:08.640Z,11.60
2018-06-04T15:29:41.985Z,11.60
2018-06-04T15:32:15.370Z,11.60
2018-06-04T15:34:50.024Z,11.50
2018-06-04T15:37:23.663Z,11.50
2018-06-04T15:39:57.399Z,11.60
2018-06-04T15:42:30.778Z,11.60
2018-06-04T15:45:04.206Z,11.60
2018-06-04T15:47:37.827Z,11.60
2018-06-04T15:50:12.110Z,11.70
2018-06-04T15:52:45.650Z,11.70
2018-06-04T15:55:19.477Z,11.80
2018-06-04T15:57:52.880Z,11.60
2018-06-04T16:00:26.485Z,11.50
2018-06-04T16:03:00.206Z,11.50
2018-06-04T16:05:33.557Z,11.50
2018-06-04T16:08:08.636Z,11.70
2018-06-04T16:13:13.124Z,11.70
2018-06-04T16:15:46.693Z,11.80
2018-06-04T16:20:52.233Z,11.70
2018-06-04T16:23:25.822Z,11.80
2018-06-04T16:26:00.230Z,11.80
2018-06-04T16:28:34.266Z,11.60
2018-06-04T16:31:08.032Z,11.60
2018-06-04T16:33:42.276Z,11.50
2018-06-04T16:36:15.990Z,11.50
2018-06-04T16:38:49.304Z,11.50
2018-06-04T16:41:23.253Z,11.70
2018-06-04T16:43:56.818Z,11.70
2018-06-04T16:46:30.564Z,11.70
2018-06-04T16:49:04.819Z,11.80
2018-06-04T16:51:38.375Z,11.90
2018-06-04T16:54:11.987Z,12.00
2018-06-04T16:56:46.903Z,12.00
2018-06-04T16:59:21.014Z,12.20
2018-06-04T17:01:55.803Z,12.50
2018-06-04T17:04:30.302Z,12.70
2018-06-04T17:07:04.783Z,12.80
2018-06-04T17:09:39.326Z,12.70
2018-06-04T17:12:13.926Z,12.40
2018-06-04T17:14:48.478Z,12.50
2018-06-04T17:17:21.899Z,12.50
2018-06-04T17:19:55.398Z,12.60
2018-06-04T17:22:29.103Z,12.60
2018-06-04T17:25:02.763Z,12.50
2018-06-04T17:27:37.265Z,12.70
2018-06-04T17:30:10.651Z,12.50
2018-06-04T17:32:44.856Z,12.70
2018-06-04T17:35:18.034Z,12.50
2018-06-04T17:37:51.858Z,12.70
2018-06-04T17:40:25.448Z,12.70
2018-06-04T17:42:58.947Z,12.90
2018-06-04T17:45:32.436Z,13.20
2018-06-04T17:48:06.471Z,13.40
2018-06-04T17:50:39.625Z,13.70
2018-06-04T17:53:13.330Z,14.00
2018-06-04T17:55:47.066Z,13.70
2018-06-04T17:58:21.082Z,13.80
2018-06-04T18:03:28.152Z,13.80
2018-06-04T18:06:01.461Z,14.00
2018-06-04T18:08:34.790Z,14.10
2018-06-04T18:11:08.005Z,13.80
2018-06-04T18:13:41.414Z,13.90
2018-06-04T18:16:15.204Z,13.90
2018-06-04T18:18:48.871Z,14.50
2018-06-04T18:21:22.945Z,14.50
2018-06-04T18:23:56.987Z,14.40
2018-06-04T18:26:29.923Z,14.40
2018-06-04T18:29:03.779Z,14.80
2018-06-04T18:31:37.184Z,14.70
2018-06-04T18:34:10.889Z,14.70
2018-06-04T18:36:44.757Z,15.00
2018-06-04T18:39:19.085Z,15.20
2018-06-04T18:41:52.556Z,15.30
2018-06-04T18:44:27.264Z,15.30
2018-06-04T18:47:03.044Z,15.20
2018-06-04T18:49:36.662Z,15.40
2018-06-04T18:52:10.318Z,15.80
2018-06-04T18:54:43.790Z,16.00
2018-06-04T18:57:17.361Z,15.30
2018-06-04T18:59:51.098Z,14.40
2018-06-04T19:02:24.207Z,14.60
2018-06-04T19:04:57.821Z,14.80
2018-06-04T19:07:31.649Z,15.20
2018-06-04T19:10:05.039Z,15.50
2018-06-04T19:12:38.650Z,15.80
2018-06-04T19:15:12.090Z,15.50
2018-06-04T19:17:45.105Z,15.50
2018-06-04T19:20:18.365Z,15.50
2018-06-04T19:22:51.933Z,15.90
2018-06-04T19:25:25.310Z,16.40
2018-06-04T19:27:58.835Z,16.30
2018-06-04T19:30:32.684Z,16.50
2018-06-04T19:33:06.128Z,16.20
2018-06-04T19:35:39.738Z,15.80
2018-06-04T19:38:13.086Z,15.80
2018-06-04T19:40:46.919Z,16.40
2018-06-04T19:43:20.916Z,16.50
2018-06-04T19:45:54.771Z,16.10
2018-06-04T19:48:28.543Z,16.10
2018-06-04T19:51:02.184Z,16.00
2018-06-04T19:53:35.551Z,16.30
2018-06-04T19:56:09.013Z,16.80
2018-06-04T19:58:42.541Z,17.00
2018-06-04T20:01:16.435Z,16.80
2018-06-04T20:03:49.843Z,16.90
2018-06-04T20:06:23.221Z,16.80
2018-06-04T20:08:57.777Z,17.00
2018-06-04T20:11:31.615Z,16.80
2018-06-04T20:14:05.262Z,16.70
2018-06-04T20:16:39.384Z,16.20
2018-06-04T20:19:13.344Z,16.10
2018-06-04T20:21:46.844Z,16.20
2018-06-04T20:24:20.301Z,16.30
2018-06-04T20:26:54.089Z,16.80
2018-06-04T20:29:27.774Z,16.70
2018-06-04T20:32:03.079Z,16.60
2018-06-04T20:34:36.712Z,17.00
2018-06-04T20:37:10.124Z,17.30
2018-06-04T20:39:43.623Z,17.50
2018-06-04T20:44:49.049Z,17.40
2018-06-04T20:47:22.616Z,16.80
2018-06-04T20:49:56.651Z,16.50
2018-06-04T20:52:29.944Z,16.50
2018-06-04T20:55:03.984Z,16.60
2018-06-04T20:57:37.529Z,16.80
2018-06-04T21:00:10.927Z,17.40
2018-06-04T21:02:44.718Z,18.10
2018-06-04T21:05:18.646Z,18.40
2018-06-04T21:07:55.879Z,18.30
2018-06-04T21:10:29.347Z,18.40
2018-06-04T21:13:03.031Z,17.80
2018-06-04T21:15:36.702Z,17.50
2018-06-04T21:20:46.464Z,17.90
2018-06-04T21:25:51.897Z,18.50
2018-06-04T21:28:25.815Z,18.60
2018-06-04T21:31:00.150Z,18.60
2018-06-04T21:33:33.837Z,18.80
2018-06-04T21:36:07.478Z,19.20
2018-06-04T21:38:41.482Z,19.20
2018-06-04T21:41:14.639Z,19.70
2018-06-04T21:43:47.776Z,19.60
2018-06-04T21:46:22.661Z,19.50
2018-06-04T21:48:55.861Z,20.00
2018-06-04T21:54:00.324Z,20.20
2018-06-04T21:56:34.600Z,20.10
2018-06-04T21:59:08.601Z,20.10
2018-06-04T22:01:43.040Z,20.30
2018-06-04T22:04:16.569Z,20.60
2018-06-04T22:06:49.800Z,20.60
2018-06-04T22:09:23.513Z,20.10
2018-06-04T22:11:57.462Z,20.30
2018-06-04T22:14:33.755Z,20.80
2018-06-04T22:17:06.778Z,20.80
2018-06-04T22:19:43.370Z,20.60
2018-06-04T22:22:17.098Z,20.60
2018-06-04T22:24:50.775Z,20.80
2018-06-04T22:27:24.463Z,21.20
2018-06-04T22:29:58.800Z,21.10
2018-06-04T22:32:32.298Z,21.00
2018-06-04T22:35:06.049Z,21.40
2018-06-04T22:37:40.330Z,21.40
2018-06-04T22:40:18.902Z,21.60
2018-06-04T22:42:52.936Z,21.30
2018-06-04T22:45:26.903Z,21.30
2018-06-04T22:48:05.034Z,20.70
2018-06-04T22:50:51.370Z,21.20
2018-06-04T22:53:24.463Z,21.70
2018-06-04T22:55:57.549Z,22.50
2018-06-04T22:58:31.556Z,22.20
2018-06-04T23:01:04.574Z,21.80
2018-06-04T23:03:42.735Z,22.00
2018-06-04T23:06:15.747Z,22.80
2018-06-04T23:08:49.143Z,23.20
2018-06-04T23:11:22.718Z,23.50
2018-06-04T23:13:56.299Z,23.80
2018-06-04T23:16:30.225Z,22.80
2018-06-04T23:19:03.193Z,22.70
2018-06-04T23:21:37.011Z,22.50
2018-06-04T23:24:10.603Z,22.40
2018-06-04T23:26:43.725Z,22.60
2018-06-04T23:29:16.807Z,22.30
2018-06-04T23:31:49.726Z,22.40
2018-06-04T23:34:22.839Z,22.70
2018-06-04T23:36:55.966Z,22.80
2018-06-04T23:39:28.966Z,22.70
2018-06-04T23:42:04.429Z,22.40
2018-06-04T23:44:37.509Z,21.90
2018-06-04T23:47:11.915Z,21.60
2018-06-04T23:49:46.548Z,21.90
2018-06-04T23:52:19.626Z,22.00
2018-06-04T23:54:52.729Z,22.40
2018-06-04T23:57:26.703Z,22.50
